createdAt,value
2023-01-15T00:02:21.522Z,1.00
2023-01-15T00:04:52.773Z,1.00
2023-01-15T00:07:21.284Z,1.00
2023-01-15T00:09:50.854Z,1.00
2023-01-15T00:12:19.303Z,1.00
2023-01-15T00:14:48.414Z,1.00
2023-01-15T00:17:17.015Z,1.00
2023-01-15T00:19:45.440Z,1.00
2023-01-15T00:22:13.840Z,1.00
2023-01-15T00:25:00.861Z,1.00
2023-01-15T00:27:41.313Z,1.00
2023-01-15T00:30:13.279Z,1.00
2023-01-15T00:32:45.973Z,1.00
2023-01-15T00:35:17.303Z,1.00
2023-01-15T00:37:46.208Z,1.00
2023-01-15T00:40:16.834Z,1.00
2023-01-15T00:42:46.507Z,1.00
2023-01-15T00:45:23.674Z,1.00
2023-01-15T00:47:52.726Z,1.00
2023-01-15T00:50:21.289Z,1.00
2023-01-15T00:52:49.717Z,1.00
2023-01-15T00:55:18.251Z,1.00
2023-01-15T00:57:46.921Z,1.00
2023-01-15T01:00:15.631Z,1.00
2023-01-15T01:02:44.104Z,1.00
2023-01-15T01:05:12.565Z,1.00
2023-01-15T01:07:40.963Z,1.00
2023-01-15T01:10:10.267Z,1.00
2023-01-15T01:12:38.916Z,1.00
2023-01-15T01:15:07.951Z,1.00
2023-01-15T01:17:37.954Z,1.00
2023-01-15T01:20:06.853Z,1.00
2023-01-15T01:22:35.305Z,1.00
2023-01-15T01:25:03.944Z,1.00
2023-01-15T01:27:32.351Z,1.00
2023-01-15T01:30:01.386Z,1.00
2023-01-15T01:32:29.955Z,1.00
2023-01-15T01:34:58.451Z,1.00
2023-01-15T01:37:26.851Z,1.00
2023-01-15T01:39:56.124Z,1.00
2023-01-15T01:42:26.726Z,1.00
2023-01-15T01:45:15.533Z,1.00
2023-01-15T01:47:43.990Z,1.00
2023-01-15T01:50:14.686Z,1.00
2023-01-15T01:52:54.946Z,1.00
2023-01-15T01:55:26.386Z,1.00
2023-01-15T01:57:58.588Z,1.00
2023-01-15T02:00:27.671Z,1.00
2023-01-15T02:02:56.268Z,1.00
2023-01-15T02:05:33.060Z,1.00
2023-01-15T02:08:02.370Z,1.00
2023-01-15T02:10:30.859Z,7.40
2023-01-15T02:13:34.434Z,9.50
2023-01-15T02:16:16.632Z,9.30
2023-01-15T02:19:09.971Z,5.00
2023-01-15T02:21:57.295Z,2.10
2023-01-15T02:24:45.334Z,1.00
2023-01-15T02:27:22.538Z,1.00
2023-01-15T02:30:04.910Z,1.00
2023-01-15T02:32:45.202Z,1.00
2023-01-15T02:35:24.624Z,1.00
2023-01-15T02:37:56.374Z,1.00
2023-01-15T02:40:27.663Z,1.00
2023-01-15T02:42:57.763Z,1.00
2023-01-15T02:45:34.034Z,1.00
2023-01-15T02:48:15.482Z,1.00
2023-01-15T02:51:06.265Z,1.00
2023-01-15T02:53:37.059Z,1.00
2023-01-15T02:56:10.644Z,1.00
2023-01-15T02:58:41.608Z,1.00
2023-01-15T03:01:20.935Z,1.00
2023-01-15T03:04:02.185Z,1.00
2023-01-15T03:06:57.469Z,1.00
2023-01-15T03:09:26.451Z,1.00
2023-01-15T03:12:09.416Z,1.00
2023-01-15T03:15:11.765Z,1.00
2023-01-15T03:17:55.151Z,1.00
2023-01-15T03:20:29.880Z,1.00
2023-01-15T03:23:04.731Z,1.00
2023-01-15T03:25:39.567Z,1.00
2023-01-15T03:28:11.094Z,1.00
2023-01-15T03:30:39.646Z,1.00
2023-01-15T03:33:12.476Z,1.00
2023-01-15T03:35:59.859Z,1.00
2023-01-15T03:38:36.968Z,1.00
2023-01-15T03:41:17.436Z,1.00
2023-01-15T03:44:19.513Z,1.00
2023-01-15T03:47:06.287Z,1.00
2023-01-15T03:49:42.779Z,1.00
2023-01-15T03:52:36.958Z,1.00
2023-01-15T03:55:17.022Z,1.00
2023-01-15T03:57:50.157Z,1.00
2023-01-15T04:00:29.544Z,1.00
2023-01-15T04:02:59.739Z,1.00
2023-01-15T04:05:30.233Z,1.00
2023-01-15T04:08:00.727Z,1.00
2023-01-15T04:10:29.428Z,1.00
2023-01-15T04:12:57.877Z,1.00
2023-01-15T04:15:26.583Z,1.00
2023-01-15T04:17:55.012Z,1.00
2023-01-15T04:20:23.946Z,1.00
2023-01-15T04:22:52.547Z,1.00
2023-01-15T04:25:20.930Z,1.00
2023-01-15T04:27:49.314Z,1.00
2023-01-15T04:30:18.328Z,1.00
2023-01-15T04:32:50.600Z,1.00
2023-01-15T04:35:20.240Z,1.00
2023-01-15T04:37:48.767Z,1.00
2023-01-15T04:40:35.450Z,1.00
2023-01-15T04:43:22.031Z,9.70
2023-01-15T04:45:50.519Z,13.70
2023-01-15T04:48:19.000Z,15.60
2023-01-15T04:50:47.436Z,1.30
2023-01-15T04:53:16.278Z,1.00
2023-01-15T04:55:44.728Z,1.00
2023-01-15T04:58:13.150Z,1.00
2023-01-15T05:00:42.557Z,1.00
2023-01-15T05:03:10.961Z,1.00
2023-01-15T05:05:39.802Z,1.00
2023-01-15T05:08:08.271Z,1.00
2023-01-15T05:10:36.664Z,1.00
2023-01-15T05:13:05.125Z,1.00
2023-01-15T05:15:33.594Z,1.00
2023-01-15T05:18:02.013Z,1.00
2023-01-15T05:20:30.606Z,1.00
2023-01-15T05:22:59.076Z,8.20
2023-01-15T05:25:28.104Z,12.90
2023-01-15T05:27:56.543Z,7.70
2023-01-15T05:30:28.156Z,12.40
2023-01-15T05:32:56.978Z,16.00
2023-01-15T05:35:25.384Z,20.40
2023-01-15T05:37:53.842Z,27.10
2023-01-15T05:40:22.267Z,27.40
2023-01-15T05:42:50.704Z,20.50
2023-01-15T05:45:19.309Z,14.40
2023-01-15T05:47:47.759Z,16.10
2023-01-15T05:50:16.303Z,20.40
2023-01-15T05:52:44.824Z,20.50
2023-01-15T05:55:13.236Z,14.90
2023-01-15T05:57:41.650Z,7.50
2023-01-15T06:00:10.899Z,1.50
2023-01-15T06:02:39.757Z,2.60
2023-01-15T06:05:08.836Z,1.00
2023-01-15T06:07:37.332Z,1.00
2023-01-15T06:10:06.127Z,1.00
2023-01-15T06:12:34.612Z,1.00
2023-01-15T06:15:03.107Z,1.00
2023-01-15T06:17:31.508Z,1.00
2023-01-15T06:20:00.141Z,1.00
2023-01-15T06:22:28.552Z,1.00
2023-01-15T06:24:56.985Z,1.00
2023-01-15T06:27:25.443Z,1.00
2023-01-15T06:29:54.668Z,1.00
2023-01-15T06:32:23.079Z,1.00
2023-01-15T06:34:51.789Z,1.00
2023-01-15T06:37:20.410Z,1.00
2023-01-15T06:39:48.828Z,1.00
2023-01-15T06:42:40.127Z,1.00
2023-01-15T06:45:29.497Z,1.00
2023-01-15T06:47:58.909Z,1.00
2023-01-15T06:50:27.419Z,1.00
2023-01-15T06:52:55.830Z,1.00
2023-01-15T06:55:25.147Z,1.00
2023-01-15T06:57:53.559Z,1.00
2023-01-15T07:00:22.409Z,1.00
2023-01-15T07:02:51.686Z,1.00
2023-01-15T07:05:20.080Z,1.00
2023-01-15T07:07:49.133Z,1.00
2023-01-15T07:10:17.967Z,1.00
2023-01-15T07:12:46.377Z,1.00
2023-01-15T07:15:15.673Z,1.00
2023-01-15T07:17:44.997Z,1.00
2023-01-15T07:20:14.034Z,1.00
2023-01-15T07:22:42.441Z,1.00
2023-01-15T07:25:11.443Z,1.00
2023-01-15T07:27:39.846Z,1.00
2023-01-15T07:30:09.544Z,1.00
2023-01-15T07:32:38.754Z,1.00
2023-01-15T07:35:07.563Z,1.00
2023-01-15T07:37:35.951Z,1.00
2023-01-15T07:40:04.686Z,1.00
2023-01-15T07:42:51.255Z,1.00
2023-01-15T07:45:38.745Z,1.00
2023-01-15T07:48:30.306Z,1.00
2023-01-15T07:50:58.775Z,1.00
2023-01-15T07:53:27.181Z,1.00
2023-01-15T07:55:56.048Z,1.00
2023-01-15T07:58:25.000Z,2.50
2023-01-15T08:00:53.978Z,6.50
2023-01-15T08:03:22.390Z,1.00
2023-01-15T08:05:50.813Z,1.00
2023-01-15T08:08:20.200Z,1.00
2023-01-15T08:11:07.096Z,1.00
2023-01-15T08:13:53.713Z,1.00
2023-01-15T08:16:22.218Z,1.00
2023-01-15T08:18:50.683Z,6.20
2023-01-15T08:21:20.114Z,12.90
2023-01-15T08:23:48.638Z,23.50
2023-01-15T08:26:17.057Z,26.00
2023-01-15T08:28:45.492Z,11.20
2023-01-15T08:31:13.946Z,17.80
2023-01-15T08:33:42.479Z,17.40
2023-01-15T08:36:11.242Z,17.50
2023-01-15T08:38:39.731Z,11.30
2023-01-15T08:41:08.219Z,27.00
2023-01-15T08:43:36.852Z,39.40
2023-01-15T08:46:06.981Z,54.70
2023-01-15T08:48:35.733Z,46.90
2023-01-15T08:51:09.216Z,31.10
2023-01-15T08:53:39.137Z,32.90
2023-01-15T08:56:17.719Z,39.90
2023-01-15T08:58:48.608Z,42.80
2023-01-15T09:01:17.151Z,34.50
2023-01-15T09:03:45.755Z,17.20
2023-01-15T09:06:14.473Z,1.00
2023-01-15T09:08:42.975Z,1.00
2023-01-15T09:11:13.786Z,1.00
2023-01-15T09:13:44.329Z,1.00
2023-01-15T09:16:12.983Z,1.00
2023-01-15T09:18:42.856Z,1.00
2023-01-15T09:21:12.043Z,1.00
2023-01-15T09:23:40.571Z,1.00
2023-01-15T09:26:09.689Z,1.00
2023-01-15T09:28:38.514Z,1.00
2023-01-15T09:31:06.940Z,1.00
2023-01-15T09:33:35.388Z,1.00
2023-01-15T09:36:03.869Z,1.00
2023-01-15T09:38:35.327Z,1.00
2023-01-15T09:41:32.276Z,1.00
2023-01-15T09:44:09.931Z,1.00
2023-01-15T09:47:12.978Z,1.00
2023-01-15T09:50:01.667Z,1.00
2023-01-15T09:52:51.908Z,1.00
2023-01-15T09:55:33.311Z,1.00
2023-01-15T09:58:05.919Z,1.00
2023-01-15T10:00:44.579Z,1.00
2023-01-15T10:03:25.440Z,1.00
2023-01-15T10:06:12.880Z,1.00
2023-01-15T10:08:49.817Z,1.00
2023-01-15T10:11:22.953Z,1.00
2023-01-15T10:14:07.328Z,1.00
2023-01-15T10:16:35.822Z,1.00
2023-01-15T10:19:05.155Z,1.00
2023-01-15T10:21:52.142Z,1.00
2023-01-15T10:24:27.854Z,1.00
2023-01-15T10:26:58.802Z,1.00
2023-01-15T10:29:36.042Z,1.00
2023-01-15T10:32:19.923Z,1.00
2023-01-15T10:35:01.294Z,1.00
2023-01-15T10:37:42.890Z,1.00
2023-01-15T10:40:20.388Z,1.00
2023-01-15T10:43:14.615Z,1.00
2023-01-15T10:45:48.397Z,1.00
2023-01-15T10:48:42.532Z,1.00
2023-01-15T10:51:35.472Z,1.00
2023-01-15T10:54:24.136Z,1.00
2023-01-15T10:57:13.494Z,1.00
2023-01-15T11:00:02.549Z,1.00
2023-01-15T11:03:08.883Z,1.00
2023-01-15T11:05:39.579Z,1.00
2023-01-15T11:08:58.379Z,1.00
2023-01-15T11:11:22.041Z,1.00
2023-01-15T11:14:15.890Z,1.00
2023-01-15T11:17:03.573Z,1.00
2023-01-15T11:19:40.986Z,1.00
2023-01-15T11:22:12.831Z,7.50
2023-01-15T11:25:02.139Z,26.60
2023-01-15T11:27:34.811Z,22.00
2023-01-15T11:30:05.417Z,20.60
2023-01-15T11:32:39.555Z,20.00
2023-01-15T11:35:18.891Z,25.70
2023-01-15T11:37:47.362Z,33.00
2023-01-15T11:40:20.259Z,33.70
2023-01-15T11:43:08.199Z,36.40
2023-01-15T11:46:05.628Z,38.10
2023-01-15T11:49:04.295Z,54.10
2023-01-15T11:51:43.069Z,51.50
2023-01-15T11:54:16.127Z,42.50
2023-01-15T11:56:47.548Z,40.40
2023-01-15T11:59:20.731Z,29.80
2023-01-15T12:02:05.323Z,25.60
2023-01-15T12:04:45.633Z,24.30
2023-01-15T12:07:15.419Z,28.80
2023-01-15T12:10:11.110Z,34.50
2023-01-15T12:13:24.531Z,40.20
2023-01-15T12:16:05.178Z,46.20
2023-01-15T12:18:48.915Z,29.50
2023-01-15T12:21:30.136Z,29.90
2023-01-15T12:24:21.547Z,22.60
2023-01-15T12:27:10.480Z,31.10
2023-01-15T12:29:47.219Z,35.20
2023-01-15T12:32:20.924Z,32.10
2023-01-15T12:35:03.301Z,27.90
2023-01-15T12:37:39.827Z,26.40
2023-01-15T12:40:21.208Z,22.50
2023-01-15T12:43:12.258Z,18.50
2023-01-15T12:45:48.376Z,26.20
2023-01-15T12:48:28.168Z,26.90
2023-01-15T12:51:00.237Z,29.00
2023-01-15T12:53:53.160Z,25.00
2023-01-15T12:56:24.370Z,18.40
2023-01-15T12:59:06.034Z,13.30
2023-01-15T13:01:43.663Z,9.60
2023-01-15T13:04:12.089Z,8.60
2023-01-15T13:06:45.975Z,12.70
2023-01-15T13:09:40.064Z,14.70
2023-01-15T13:12:18.804Z,9.60
2023-01-15T13:14:47.461Z,22.80
2023-01-15T13:17:53.096Z,18.50
2023-01-15T13:20:37.275Z,9.30
2023-01-15T13:23:10.570Z,7.40
2023-01-15T13:26:12.498Z,12.00
2023-01-15T13:28:59.639Z,4.10
2023-01-15T13:31:37.156Z,1.00
2023-01-15T13:34:18.165Z,1.00
2023-01-15T13:36:50.143Z,5.80
2023-01-15T13:39:22.743Z,2.10
2023-01-15T13:42:12.549Z,1.00
2023-01-15T13:44:48.670Z,7.50
2023-01-15T13:47:29.478Z,3.60
2023-01-15T13:50:01.817Z,9.60
2023-01-15T13:52:34.210Z,14.40
2023-01-15T13:55:30.817Z,29.70
2023-01-15T13:57:59.323Z,22.20
2023-01-15T14:00:37.441Z,31.80
2023-01-15T14:03:29.871Z,45.10
2023-01-15T14:06:03.865Z,30.40
2023-01-15T14:08:44.781Z,51.20
2023-01-15T14:11:39.424Z,73.10
2023-01-15T14:14:32.226Z,91.00
2023-01-15T14:17:31.623Z,94.60
2023-01-15T14:20:34.771Z,94.60
2023-01-15T14:23:24.868Z,99.90
2023-01-15T14:25:53.267Z,99.90
2023-01-15T14:28:30.997Z,99.90
2023-01-15T14:31:36.792Z,99.90
2023-01-15T14:34:16.059Z,99.90
2023-01-15T14:37:02.939Z,99.90
2023-01-15T14:39:52.004Z,99.90
2023-01-15T14:42:41.659Z,99.90
2023-01-15T14:45:34.610Z,99.90
2023-01-15T14:48:18.204Z,99.90
2023-01-15T14:50:48.407Z,91.60
2023-01-15T14:53:28.099Z,94.60
2023-01-15T14:56:19.247Z,92.70
2023-01-15T14:58:59.514Z,96.30
2023-01-15T15:01:50.440Z,98.50
2023-01-15T15:04:33.317Z,94.80
2023-01-15T15:07:15.633Z,91.30
2023-01-15T15:09:52.250Z,92.60
2023-01-15T15:12:30.857Z,96.60
2023-01-15T15:15:20.801Z,93.70
2023-01-15T15:17:58.160Z,63.60
2023-01-15T15:20:54.949Z,49.10
2023-01-15T15:23:49.821Z,36.20
2023-01-15T15:26:30.264Z,44.10
2023-01-15T15:29:04.686Z,47.70
2023-01-15T15:31:57.327Z,49.80
2023-01-15T15:34:41.411Z,50.30
2023-01-15T15:37:22.175Z,34.80
2023-01-15T15:39:59.165Z,43.60
2023-01-15T15:43:00.432Z,47.30
2023-01-15T15:45:49.716Z,49.80
2023-01-15T15:48:46.116Z,43.90
2023-01-15T15:51:36.577Z,66.40
2023-01-15T15:54:23.345Z,81.30
2023-01-15T15:56:54.551Z,88.80
2023-01-15T15:59:49.828Z,93.30
2023-01-15T16:02:42.188Z,99.90
2023-01-15T16:05:33.893Z,99.10
2023-01-15T16:08:21.463Z,99.90
2023-01-15T16:10:53.889Z,99.90
2023-01-15T16:13:33.819Z,99.90
2023-01-15T16:16:04.086Z,99.90
2023-01-15T16:18:46.077Z,99.90
2023-01-15T16:21:27.183Z,99.90
2023-01-15T16:23:59.806Z,99.90
2023-01-15T16:26:38.431Z,99.90
2023-01-15T16:29:16.782Z,99.90
2023-01-15T16:31:45.434Z,99.90
2023-01-15T16:34:19.540Z,99.90
2023-01-15T16:36:48.556Z,99.90
2023-01-15T16:39:24.706Z,99.90
2023-01-15T16:41:58.400Z,99.90
2023-01-15T16:44:40.999Z,99.90
2023-01-15T16:47:21.915Z,99.90
2023-01-15T16:49:50.440Z,99.90
2023-01-15T16:52:53.468Z,99.90
2023-01-15T16:55:42.485Z,99.90
2023-01-15T16:58:16.759Z,99.90
2023-01-15T17:00:51.883Z,99.90
2023-01-15T17:03:26.302Z,98.00
2023-01-15T17:06:01.319Z,99.90
2023-01-15T17:08:40.856Z,97.20
2023-01-15T17:11:25.239Z,95.70
2023-01-15T17:14:08.024Z,99.90
2023-01-15T17:16:36.607Z,96.30
2023-01-15T17:19:08.688Z,97.70
2023-01-15T17:21:39.632Z,98.70
2023-01-15T17:24:09.954Z,99.90
2023-01-15T17:26:38.466Z,99.90
2023-01-15T17:29:06.911Z,99.90
2023-01-15T17:31:37.040Z,99.90
2023-01-15T17:34:06.313Z,99.90
2023-01-15T17:36:35.714Z,99.90
2023-01-15T17:39:04.301Z,95.80
2023-01-15T17:41:32.726Z,99.90
2023-01-15T17:44:01.460Z,96.10
2023-01-15T17:46:29.940Z,95.00
2023-01-15T17:48:58.345Z,92.50
2023-01-15T17:51:27.253Z,89.20
2023-01-15T17:53:55.776Z,96.80
2023-01-15T17:56:42.419Z,99.40
2023-01-15T17:59:31.088Z,97.00
2023-01-15T18:02:34.737Z,94.60
2023-01-15T18:05:21.631Z,91.00
2023-01-15T18:07:50.162Z,97.70
2023-01-15T18:10:21.832Z,92.80
2023-01-15T18:12:50.688Z,93.90
2023-01-15T18:15:20.402Z,88.40
2023-01-15T18:17:48.907Z,90.10
2023-01-15T18:20:17.580Z,91.40
2023-01-15T18:22:46.721Z,92.70
2023-01-15T18:25:15.147Z,93.90
2023-01-15T18:27:44.232Z,94.80
2023-01-15T18:30:14.615Z,98.70
2023-01-15T18:32:44.697Z,99.90
2023-01-15T18:35:15.111Z,99.90
2023-01-15T18:37:44.367Z,99.90
2023-01-15T18:40:14.055Z,98.10
2023-01-15T18:43:01.485Z,99.90
2023-01-15T18:45:48.650Z,99.90
2023-01-15T18:48:17.055Z,97.20
2023-01-15T18:50:46.064Z,99.90
2023-01-15T18:53:14.629Z,99.90
2023-01-15T18:55:44.823Z,97.00
2023-01-15T18:58:13.311Z,98.70
2023-01-15T19:00:41.754Z,99.00
2023-01-15T19:03:10.260Z,97.40
2023-01-15T19:05:38.691Z,94.60
2023-01-15T19:08:07.444Z,93.30
2023-01-15T19:10:35.849Z,95.70
2023-01-15T19:13:06.356Z,92.80
2023-01-15T19:15:53.395Z,93.30
2023-01-15T19:18:40.112Z,65.00
2023-01-15T19:21:13.055Z,82.30
2023-01-15T19:23:41.616Z,83.80
2023-01-15T19:26:10.101Z,88.70
2023-01-15T19:28:38.591Z,64.60
2023-01-15T19:31:29.105Z,70.40
2023-01-15T19:34:31.022Z,70.40
2023-01-15T19:36:48.328Z,81.10
2023-01-15T19:39:17.789Z,60.70
2023-01-15T19:42:04.428Z,71.30
2023-01-15T19:44:51.508Z,54.90
2023-01-15T19:47:50.883Z,48.20
2023-01-15T19:50:22.552Z,61.50
2023-01-15T19:52:55.428Z,67.60
2023-01-15T19:55:25.773Z,64.20
2023-01-15T19:58:02.398Z,47.20
2023-01-15T20:00:33.800Z,60.40
2023-01-15T20:03:04.166Z,39.70
2023-01-15T20:05:33.906Z,37.00
2023-01-15T20:08:02.328Z,48.00
2023-01-15T20:10:32.618Z,44.90
2023-01-15T20:13:19.403Z,56.10
2023-01-15T20:15:48.088Z,44.50
2023-01-15T20:18:18.062Z,42.90
2023-01-15T20:20:46.629Z,32.90
2023-01-15T20:23:15.420Z,29.80
2023-01-15T20:25:47.348Z,45.40
2023-01-15T20:28:15.747Z,30.40
2023-01-15T20:30:44.206Z,39.00
2023-01-15T20:33:13.633Z,41.80
2023-01-15T20:35:42.106Z,36.60
2023-01-15T20:38:11.087Z,46.60
2023-01-15T20:40:39.550Z,50.00
2023-01-15T20:43:26.180Z,45.60
2023-01-15T20:45:55.395Z,24.30
2023-01-15T20:48:42.082Z,43.20
2023-01-15T20:51:14.389Z,42.50
2023-01-15T20:53:43.110Z,40.30
2023-01-15T20:56:17.491Z,38.80
2023-01-15T20:58:46.165Z,43.10
2023-01-15T21:01:15.669Z,42.80
2023-01-15T21:03:44.213Z,46.50
2023-01-15T21:06:12.617Z,39.60
2023-01-15T21:08:42.343Z,33.00
2023-01-15T21:11:10.830Z,39.10
2023-01-15T21:13:45.450Z,31.40
2023-01-15T21:16:15.692Z,37.10
2023-01-15T21:18:46.045Z,41.20
2023-01-15T21:21:17.040Z,41.60
2023-01-15T21:23:48.770Z,43.40
2023-01-15T21:26:17.745Z,49.10
2023-01-15T21:28:46.258Z,62.00
2023-01-15T21:31:16.310Z,70.70
2023-01-15T21:33:44.843Z,81.70
2023-01-15T21:36:15.946Z,90.00
2023-01-15T21:38:44.515Z,96.20
2023-01-15T21:41:14.962Z,99.90
2023-01-15T21:44:02.613Z,99.90
2023-01-15T21:46:31.931Z,99.90
2023-01-15T21:49:00.840Z,99.90
2023-01-15T21:51:29.465Z,99.90
2023-01-15T21:54:00.221Z,99.90
2023-01-15T21:56:29.196Z,99.90
2023-01-15T21:58:58.003Z,99.90
2023-01-15T22:01:26.834Z,99.90
2023-01-15T22:03:55.365Z,99.90
2023-01-15T22:06:23.946Z,99.90
2023-01-15T22:08:56.061Z,99.90
2023-01-15T22:11:25.092Z,99.90
2023-01-15T22:13:54.095Z,99.90
2023-01-15T22:16:22.637Z,99.90
2023-01-15T22:18:51.474Z,99.90
2023-01-15T22:21:19.865Z,99.90
2023-01-15T22:23:49.213Z,99.90
2023-01-15T22:26:22.348Z,99.90
2023-01-15T22:28:52.537Z,99.90
2023-01-15T22:31:21.012Z,99.90
2023-01-15T22:33:49.571Z,99.90
2023-01-15T22:36:18.573Z,99.90
2023-01-15T22:38:47.923Z,99.90
2023-01-15T22:41:36.619Z,99.90
2023-01-15T22:44:06.253Z,99.90
2023-01-15T22:46:35.862Z,99.90
2023-01-15T22:49:05.213Z,99.90
2023-01-15T22:51:33.659Z,99.90
2023-01-15T22:54:03.627Z,99.90
2023-01-15T22:56:32.073Z,99.90
2023-01-15T22:59:00.942Z,99.90
2023-01-15T23:01:29.472Z,99.90
2023-01-15T23:03:58.082Z,99.90
2023-01-15T23:06:28.342Z,99.90
2023-01-15T23:08:58.383Z,99.90
2023-01-15T23:11:27.851Z,99.90
2023-01-15T23:13:57.702Z,99.90
2023-01-15T23:16:26.267Z,99.90
2023-01-15T23:18:55.020Z,99.90
2023-01-15T23:21:26.377Z,99.90
2023-01-15T23:23:56.704Z,99.90
2023-01-15T23:26:26.490Z,99.90
2023-01-15T23:28:55.690Z,99.90
2023-01-15T23:31:25.433Z,99.90
2023-01-15T23:33:54.259Z,99.90
2023-01-15T23:36:23.323Z,99.90
2023-01-15T23:38:52.398Z,99.90
2023-01-15T23:41:43.695Z,99.90
2023-01-15T23:44:38.216Z,99.90
2023-01-15T23:47:09.199Z,99.90
2023-01-15T23:49:37.920Z,99.90
2023-01-15T23:52:06.840Z,99.90
2023-01-15T23:54:35.380Z,99.90
2023-01-15T23:57:04.689Z,99.90
2023-01-15T23:59:33.153Z,99.90
